sensor_id;sensor_type;location;lat;lon;timestamp;pressure;altitude;pressure_sealevel;temperature;humidity
9538;BME280;4807;48.024;11.726;2022-09-17T00:00:10;94464.94;;;10.41;83.51
9538;BME280;4807;48.024;11.726;2022-09-17T00:03:19;94450.91;;;10.27;84.59
9538;BME280;4807;48.024;11.726;2022-09-17T00:06:30;94460.94;;;10.12;85.41
9538;BME280;4807;48.024;11.726;2022-09-17T00:09:40;94467.53;;;9.89;85.82
9538;BME280;4807;48.024;11.726;2022-09-17T00:12:50;94471.44;;;9.87;85.43
9538;BME280;4807;48.024;11.726;2022-09-17T00:15:58;94470.44;;;9.88;86.24
9538;BME280;4807;48.024;11.726;2022-09-17T00:19:12;94468.16;;;9.85;85.70
9538;BME280;4807;48.024;11.726;2022-09-17T00:22:21;94456.34;;;9.81;84.55
9538;BME280;4807;48.024;11.726;2022-09-17T00:25:30;94472.06;;;9.89;83.95
9538;BME280;4807;48.024;11.726;2022-09-17T00:28:39;94471.84;;;9.84;83.59
9538;BME280;4807;48.024;11.726;2022-09-17T00:31:47;94475.13;;;9.86;83.56
9538;BME280;4807;48.024;11.726;2022-09-17T00:34:56;94476.56;;;9.88;83.71
9538;BME280;4807;48.024;11.726;2022-09-17T00:38:04;94489.25;;;9.86;83.97
9538;BME280;4807;48.024;11.726;2022-09-17T00:41:14;94485.38;;;9.89;83.34
9538;BME280;4807;48.024;11.726;2022-09-17T00:44:46;94490.06;;;9.80;82.39
9538;BME280;4807;48.024;11.726;2022-09-17T00:47:59;94490.88;;;9.74;83.18
9538;BME280;4807;48.024;11.726;2022-09-17T00:51:10;94496.44;;;9.73;82.81
9538;BME280;4807;48.024;11.726;2022-09-17T00:54:21;94497.22;;;9.67;83.56
9538;BME280;4807;48.024;11.726;2022-09-17T00:57:31;94489.47;;;9.65;82.27
9538;BME280;4807;48.024;11.726;2022-09-17T01:00:40;94492.53;;;9.69;82.93
9538;BME280;4807;48.024;11.726;2022-09-17T01:03:49;94494.19;;;9.70;83.23
9538;BME280;4807;48.024;11.726;2022-09-17T01:07:25;94493.38;;;9.63;82.91
9538;BME280;4807;48.024;11.726;2022-09-17T01:11:12;94492.31;;;9.57;82.59
9538;BME280;4807;48.024;11.726;2022-09-17T01:14:49;94492.31;;;9.57;83.38
9538;BME280;4807;48.024;11.726;2022-09-17T01:18:31;94503.19;;;9.62;83.54
9538;BME280;4807;48.024;11.726;2022-09-17T01:22:00;94506.03;;;9.61;82.70
9538;BME280;4807;48.024;11.726;2022-09-17T01:25:21;94495.81;;;9.57;82.83
9538;BME280;4807;48.024;11.726;2022-09-17T01:28:40;94487.84;;;9.57;83.32
9538;BME280;4807;48.024;11.726;2022-09-17T01:31:58;94494.19;;;9.50;83.23
9538;BME280;4807;48.024;11.726;2022-09-17T01:35:18;94496.25;;;9.48;83.75
9538;BME280;4807;48.024;11.726;2022-09-17T01:38:38;94491.72;;;9.42;83.88
9538;BME280;4807;48.024;11.726;2022-09-17T01:41:55;94485.81;;;9.46;83.25
9538;BME280;4807;48.024;11.726;2022-09-17T01:45:12;94488.06;;;9.36;83.13
9538;BME280;4807;48.024;11.726;2022-09-17T01:48:30;94486.00;;;9.45;83.66
9538;BME280;4807;48.024;11.726;2022-09-17T01:51:44;94483.56;;;9.43;82.92
9538;BME280;4807;48.024;11.726;2022-09-17T01:54:59;94491.75;;;9.48;83.67
9538;BME280;4807;48.024;11.726;2022-09-17T01:58:14;94492.16;;;9.45;83.63
9538;BME280;4807;48.024;11.726;2022-09-17T02:01:27;94494.59;;;9.53;83.39
9538;BME280;4807;48.024;11.726;2022-09-17T02:04:44;94486.00;;;9.45;83.83
9538;BME280;4807;48.024;11.726;2022-09-17T02:08:03;94490.94;;;9.48;83.58
9538;BME280;4807;48.024;11.726;2022-09-17T02:11:14;94496.03;;;9.43;83.90
9538;BME280;4807;48.024;11.726;2022-09-17T02:14:27;94486.63;;;9.47;84.17
9538;BME280;4807;48.024;11.726;2022-09-17T02:17:46;94483.34;;;9.51;84.32
9538;BME280;4807;48.024;11.726;2022-09-17T02:21:06;94470.06;;;9.38;84.10
9538;BME280;4807;48.024;11.726;2022-09-17T02:24:20;94469.44;;;9.49;84.15
9538;BME280;4807;48.024;11.726;2022-09-17T02:27:41;94465.56;;;9.52;84.38
9538;BME280;4807;48.024;11.726;2022-09-17T02:30:54;94459.44;;;9.45;84.23
9538;BME280;4807;48.024;11.726;2022-09-17T02:34:04;94458.22;;;9.47;83.72
9538;BME280;4807;48.024;11.726;2022-09-17T02:37:15;94450.44;;;9.52;83.08
9538;BME280;4807;48.024;11.726;2022-09-17T02:40:28;94454.13;;;9.38;82.60
9538;BME280;4807;48.024;11.726;2022-09-17T02:43:50;94441.69;;;9.39;82.94
9538;BME280;4807;48.024;11.726;2022-09-17T02:47:22;94429.63;;;9.30;83.08
9538;BME280;4807;48.024;11.726;2022-09-17T02:51:00;94429.59;;;9.16;83.14
9538;BME280;4807;48.024;11.726;2022-09-17T02:54:23;94425.13;;;9.10;83.59
9538;BME280;4807;48.024;11.726;2022-09-17T02:57:41;94419.41;;;9.07;83.07
9538;BME280;4807;48.024;11.726;2022-09-17T03:00:56;94412.69;;;8.91;82.99
9538;BME280;4807;48.024;11.726;2022-09-17T03:04:11;94414.47;;;8.84;83.22
9538;BME280;4807;48.024;11.726;2022-09-17T03:07:22;94419.59;;;8.86;81.81
9538;BME280;4807;48.024;11.726;2022-09-17T03:10:32;94417.38;;;8.83;82.59
9538;BME280;4807;48.024;11.726;2022-09-17T03:13:40;94415.31;;;8.78;82.98
9538;BME280;4807;48.024;11.726;2022-09-17T03:16:49;94413.28;;;8.80;81.98
9538;BME280;4807;48.024;11.726;2022-09-17T03:19:57;94418.38;;;8.75;81.63
9538;BME280;4807;48.024;11.726;2022-09-17T03:23:05;94419.97;;;8.69;80.73
9538;BME280;4807;48.024;11.726;2022-09-17T03:26:14;94427.94;;;8.63;80.73
9538;BME280;4807;48.024;11.726;2022-09-17T03:29:23;94424.47;;;8.62;81.18
9538;BME280;4807;48.024;11.726;2022-09-17T03:32:31;94422.22;;;8.59;81.07
9538;BME280;4807;48.024;11.726;2022-09-17T03:35:42;94422.19;;;8.53;79.66
9538;BME280;4807;48.024;11.726;2022-09-17T03:38:53;94432.81;;;8.53;80.58
9538;BME280;4807;48.024;11.726;2022-09-17T03:42:03;94437.72;;;8.49;79.76
9538;BME280;4807;48.024;11.726;2022-09-17T03:45:12;94438.34;;;8.51;80.82
9538;BME280;4807;48.024;11.726;2022-09-17T03:48:21;94438.94;;;8.53;80.76
9538;BME280;4807;48.024;11.726;2022-09-17T03:51:29;94437.28;;;8.46;80.70
9538;BME280;4807;48.024;11.726;2022-09-17T03:54:38;94439.75;;;8.47;81.24
9538;BME280;4807;48.024;11.726;2022-09-17T03:57:47;94436.06;;;8.48;80.63
9538;BME280;4807;48.024;11.726;2022-09-17T04:00:57;94441.38;;;8.48;81.88
9538;BME280;4807;48.024;11.726;2022-09-17T04:04:05;94434.03;;;8.50;81.35
9538;BME280;4807;48.024;11.726;2022-09-17T04:07:14;94437.28;;;8.46;81.21
9538;BME280;4807;48.024;11.726;2022-09-17T04:10:22;94430.97;;;8.53;81.32
9538;BME280;4807;48.024;11.726;2022-09-17T04:13:32;94432.78;;;8.46;81.09
9538;BME280;4807;48.024;11.726;2022-09-17T04:16:40;94427.69;;;8.38;82.55
9538;BME280;4807;48.024;11.726;2022-09-17T04:19:48;94425.03;;;8.38;81.72
9538;BME280;4807;48.024;11.726;2022-09-17T04:22:57;94424.19;;;8.37;82.79
9538;BME280;4807;48.024;11.726;2022-09-17T04:26:05;94447.88;;;8.39;83.03
9538;BME280;4807;48.024;11.726;2022-09-17T04:29:15;94456.47;;;8.41;82.56
9538;BME280;4807;48.024;11.726;2022-09-17T04:32:23;94471.97;;;8.44;82.90
9538;BME280;4807;48.024;11.726;2022-09-17T04:35:31;94475.31;;;8.59;81.84
9538;BME280;4807;48.024;11.726;2022-09-17T04:38:40;94474.88;;;8.62;82.45
9538;BME280;4807;48.024;11.726;2022-09-17T04:41:48;94481.03;;;8.69;82.16
9538;BME280;4807;48.024;11.726;2022-09-17T04:44:58;94490.22;;;8.73;82.95
9538;BME280;4807;48.024;11.726;2022-09-17T04:48:06;94499.59;;;8.69;82.00
9538;BME280;4807;48.024;11.726;2022-09-17T04:51:15;94497.13;;;8.68;81.58
9538;BME280;4807;48.024;11.726;2022-09-17T04:54:23;94513.50;;;8.71;81.86
9538;BME280;4807;48.024;11.726;2022-09-17T04:57:32;94517.16;;;8.70;80.85
9538;BME280;4807;48.024;11.726;2022-09-17T05:00:41;94502.69;;;8.66;80.88
9538;BME280;4807;48.024;11.726;2022-09-17T05:03:49;94505.09;;;8.68;81.76
9538;BME280;4807;48.024;11.726;2022-09-17T05:06:57;94518.59;;;8.73;80.83
9538;BME280;4807;48.024;11.726;2022-09-17T05:10:08;94528.38;;;8.66;80.08
9538;BME280;4807;48.024;11.726;2022-09-17T05:13:17;94527.97;;;8.62;80.11
9538;BME280;4807;48.024;11.726;2022-09-17T05:16:26;94527.31;;;8.60;81.73
9538;BME280;4807;48.024;11.726;2022-09-17T05:19:35;94524.94;;;8.72;82.43
9538;BME280;4807;48.024;11.726;2022-09-17T05:22:45;94531.69;;;8.74;81.16
9538;BME280;4807;48.024;11.726;2022-09-17T05:25:57;94531.63;;;8.68;81.96
9538;BME280;4807;48.024;11.726;2022-09-17T05:29:06;94525.13;;;8.70;81.48
9538;BME280;4807;48.024;11.726;2022-09-17T05:32:16;94534.34;;;8.74;82.38
9538;BME280;4807;48.024;11.726;2022-09-17T05:35:24;94557.81;;;8.77;82.17
9538;BME280;4807;48.024;11.726;2022-09-17T05:38:32;94561.09;;;8.79;82.16
9538;BME280;4807;48.024;11.726;2022-09-17T05:41:41;94568.03;;;8.80;82.32
9538;BME280;4807;48.024;11.726;2022-09-17T05:44:49;94577.84;;;8.80;81.92
9538;BME280;4807;48.024;11.726;2022-09-17T05:48:01;94585.97;;;8.72;82.53
9538;BME280;4807;48.024;11.726;2022-09-17T05:51:10;94596.41;;;8.73;81.69
9538;BME280;4807;48.024;11.726;2022-09-17T05:54:18;94597.78;;;8.63;82.13
9538;BME280;4807;48.024;11.726;2022-09-17T05:57:28;94595.78;;;8.71;81.20
9538;BME280;4807;48.024;11.726;2022-09-17T06:00:37;94598.44;;;8.71;81.36
9538;BME280;4807;48.024;11.726;2022-09-17T06:03:47;94585.78;;;8.73;81.70
9538;BME280;4807;48.024;11.726;2022-09-17T06:06:55;94582.31;;;8.79;81.07
9538;BME280;4807;48.024;11.726;2022-09-17T06:10:05;94578.66;;;8.80;81.34
9538;BME280;4807;48.024;11.726;2022-09-17T06:13:14;94584.13;;;8.72;80.42
9538;BME280;4807;48.024;11.726;2022-09-17T06:16:23;94594.31;;;8.69;80.16
9538;BME280;4807;48.024;11.726;2022-09-17T06:19:33;94588.84;;;8.77;80.90
9538;BME280;4807;48.024;11.726;2022-09-17T06:22:42;94598.25;;;8.79;80.16
9538;BME280;4807;48.024;11.726;2022-09-17T06:25:52;94601.13;;;8.85;79.64
9538;BME280;4807;48.024;11.726;2022-09-17T06:29:01;94595.00;;;8.84;79.97
9538;BME280;4807;48.024;11.726;2022-09-17T06:32:09;94593.84;;;9.00;79.83
9538;BME280;4807;48.024;11.726;2022-09-17T06:35:20;94585.28;;;9.11;80.13
9538;BME280;4807;48.024;11.726;2022-09-17T06:38:30;94591.41;;;9.11;78.50
9538;BME280;4807;48.024;11.726;2022-09-17T06:41:41;94594.31;;;9.23;78.96
9538;BME280;4807;48.024;11.726;2022-09-17T06:44:49;94599.44;;;9.31;78.06
9538;BME280;4807;48.024;11.726;2022-09-17T06:48:02;94592.69;;;9.42;78.12
9538;BME280;4807;48.024;11.726;2022-09-17T06:51:13;94591.09;;;9.61;78.59
9538;BME280;4807;48.024;11.726;2022-09-17T06:54:21;94593.31;;;9.57;77.73
9538;BME280;4807;48.024;11.726;2022-09-17T06:57:29;94595.97;;;9.37;77.63
9538;BME280;4807;48.024;11.726;2022-09-17T07:00:38;94587.19;;;9.30;78.48
9538;BME280;4807;48.024;11.726;2022-09-17T07:03:46;94573.88;;;9.24;79.00
9538;BME280;4807;48.024;11.726;2022-09-17T07:06:56;94578.31;;;9.10;78.72
9538;BME280;4807;48.024;11.726;2022-09-17T07:10:06;94576.94;;;9.14;78.85
9538;BME280;4807;48.024;11.726;2022-09-17T07:13:15;94591.03;;;9.21;79.50
9538;BME280;4807;48.024;11.726;2022-09-17T07:16:23;94597.16;;;9.15;78.87
9538;BME280;4807;48.024;11.726;2022-09-17T07:19:32;94601.22;;;9.17;79.05
9538;BME280;4807;48.024;11.726;2022-09-17T07:22:42;94594.88;;;9.12;80.37
9538;BME280;4807;48.024;11.726;2022-09-17T07:25:51;94597.38;;;9.20;79.63
9538;BME280;4807;48.024;11.726;2022-09-17T07:29:00;94601.28;;;9.24;78.88
9538;BME280;4807;48.024;11.726;2022-09-17T07:32:08;94613.94;;;9.42;78.62
9538;BME280;4807;48.024;11.726;2022-09-17T07:35:16;94599.50;;;9.71;77.53
9538;BME280;4807;48.024;11.726;2022-09-17T07:38:27;94599.69;;;9.89;76.36
9538;BME280;4807;48.024;11.726;2022-09-17T07:41:39;94596.81;;;9.84;74.52
9538;BME280;4807;48.024;11.726;2022-09-17T07:44:48;94579.84;;;9.91;74.40
9538;BME280;4807;48.024;11.726;2022-09-17T07:47:56;94589.25;;;9.68;74.43
9538;BME280;4807;48.024;11.726;2022-09-17T07:51:05;94588.22;;;9.82;75.83
9538;BME280;4807;48.024;11.726;2022-09-17T07:54:14;94588.22;;;10.28;72.75
9538;BME280;4807;48.024;11.726;2022-09-17T07:57:23;94594.72;;;10.52;71.91
9538;BME280;4807;48.024;11.726;2022-09-17T08:00:31;94597.94;;;10.67;71.99
9538;BME280;4807;48.024;11.726;2022-09-17T08:03:40;94606.88;;;10.92;71.84
9538;BME280;4807;48.024;11.726;2022-09-17T08:06:49;94611.06;;;11.13;69.47
9538;BME280;4807;48.024;11.726;2022-09-17T08:09:58;94614.19;;;11.03;69.50
9538;BME280;4807;48.024;11.726;2022-09-17T08:13:08;94610.00;;;10.76;70.77
9538;BME280;4807;48.024;11.726;2022-09-17T08:16:17;94610.25;;;10.55;71.78
9538;BME280;4807;48.024;11.726;2022-09-17T08:19:29;94617.66;;;10.53;71.46
9538;BME280;4807;48.024;11.726;2022-09-17T08:22:39;94614.59;;;10.43;72.01
9538;BME280;4807;48.024;11.726;2022-09-17T08:25:57;94617.06;;;10.24;71.48
9538;BME280;4807;48.024;11.726;2022-09-17T08:29:06;94621.72;;;10.68;72.44
9538;BME280;4807;48.024;11.726;2022-09-17T08:32:16;94620.00;;;11.32;69.28
9538;BME280;4807;48.024;11.726;2022-09-17T08:35:24;94623.56;;;11.89;67.89
9538;BME280;4807;48.024;11.726;2022-09-17T08:38:35;94621.41;;;11.41;66.88
9538;BME280;4807;48.024;11.726;2022-09-17T08:42:09;94619.72;;;11.46;63.87
9538;BME280;4807;48.024;11.726;2022-09-17T08:45:20;94619.84;;;11.27;66.58
9538;BME280;4807;48.024;11.726;2022-09-17T08:48:38;94626.63;;;11.54;65.83
9538;BME280;4807;48.024;11.726;2022-09-17T08:52:05;94617.84;;;11.85;64.96
9538;BME280;4807;48.024;11.726;2022-09-17T08:55:29;94621.78;;;12.32;63.71
9538;BME280;4807;48.024;11.726;2022-09-17T08:58:58;94636.31;;;12.36;65.00
9538;BME280;4807;48.024;11.726;2022-09-17T09:02:22;94627.34;;;12.06;62.80
9538;BME280;4807;48.024;11.726;2022-09-17T09:05:41;94640.28;;;11.71;64.81
9538;BME280;4807;48.024;11.726;2022-09-17T09:08:58;94653.47;;;11.21;67.02
9538;BME280;4807;48.024;11.726;2022-09-17T09:12:17;94642.91;;;11.01;67.58
9538;BME280;4807;48.024;11.726;2022-09-17T09:15:52;94643.41;;;10.65;68.84
9538;BME280;4807;48.024;11.726;2022-09-17T09:19:20;94644.25;;;10.59;68.55
9538;BME280;4807;48.024;11.726;2022-09-17T09:22:45;94646.09;;;10.59;68.81
9538;BME280;4807;48.024;11.726;2022-09-17T09:26:09;94641.75;;;10.71;67.60
9538;BME280;4807;48.024;11.726;2022-09-17T09:29:41;94653.88;;;10.67;68.01
9538;BME280;4807;48.024;11.726;2022-09-17T09:33:10;94650.41;;;10.47;68.78
9538;BME280;4807;48.024;11.726;2022-09-17T09:36:20;94653.47;;;10.57;68.39
9538;BME280;4807;48.024;11.726;2022-09-17T09:39:32;94660.22;;;10.66;69.56
9538;BME280;4807;48.024;11.726;2022-09-17T09:43:19;94652.84;;;10.68;67.48
9538;BME280;4807;48.024;11.726;2022-09-17T09:47:25;94656.88;;;10.90;67.82
9538;BME280;4807;48.024;11.726;2022-09-17T09:50:55;94659.84;;;11.14;68.08
9538;BME280;4807;48.024;11.726;2022-09-17T09:54:29;94665.31;;;11.32;66.91
9538;BME280;4807;48.024;11.726;2022-09-17T09:57:46;94658.41;;;11.11;67.16
9538;BME280;4807;48.024;11.726;2022-09-17T10:00:55;94659.31;;;10.98;69.51
9538;BME280;4807;48.024;11.726;2022-09-17T10:04:19;94658.34;;;10.73;71.07
9538;BME280;4807;48.024;11.726;2022-09-17T10:07:29;94660.22;;;10.59;73.09
9538;BME280;4807;48.024;11.726;2022-09-17T10:10:54;94667.06;;;11.06;71.99
9538;BME280;4807;48.024;11.726;2022-09-17T10:14:19;94644.88;;;11.57;70.07
9538;BME280;4807;48.024;11.726;2022-09-17T10:17:29;94650.59;;;11.99;68.73
9538;BME280;4807;48.024;11.726;2022-09-17T10:20:52;94650.31;;;11.82;69.23
9538;BME280;4807;48.024;11.726;2022-09-17T10:24:22;94658.34;;;11.31;69.97
9538;BME280;4807;48.024;11.726;2022-09-17T10:27:31;94649.69;;;11.42;70.07
9538;BME280;4807;48.024;11.726;2022-09-17T10:30:55;94651.03;;;11.13;71.30
9538;BME280;4807;48.024;11.726;2022-09-17T10:34:05;94658.03;;;11.07;70.07
9538;BME280;4807;48.024;11.726;2022-09-17T10:37:41;94644.09;;;10.35;69.90
9538;BME280;4807;48.024;11.726;2022-09-17T10:40:51;94653.69;;;10.03;72.55
9538;BME280;4807;48.024;11.726;2022-09-17T10:44:17;94663.72;;;9.81;73.34
9538;BME280;4807;48.024;11.726;2022-09-17T10:47:28;94658.81;;;9.04;72.21
9538;BME280;4807;48.024;11.726;2022-09-17T10:50:37;94651.72;;;8.76;76.40
9538;BME280;4807;48.024;11.726;2022-09-17T10:54:22;94660.09;;;8.73;78.85
9538;BME280;4807;48.024;11.726;2022-09-17T10:57:54;94664.28;;;8.55;79.38
9538;BME280;4807;48.024;11.726;2022-09-17T11:01:17;94662.91;;;8.65;80.13
9538;BME280;4807;48.024;11.726;2022-09-17T11:04:42;94663.47;;;9.02;79.71
9538;BME280;4807;48.024;11.726;2022-09-17T11:08:06;94666.31;;;9.54;78.83
9538;BME280;4807;48.024;11.726;2022-09-17T11:11:33;94664.31;;;9.76;77.51
9538;BME280;4807;48.024;11.726;2022-09-17T11:14:59;94672.31;;;9.96;77.27
9538;BME280;4807;48.024;11.726;2022-09-17T11:18:34;94671.69;;;9.81;78.18
9538;BME280;4807;48.024;11.726;2022-09-17T11:21:48;94662.28;;;9.85;78.06
9538;BME280;4807;48.024;11.726;2022-09-17T11:25:26;94666.19;;;9.95;77.54
9538;BME280;4807;48.024;11.726;2022-09-17T11:28:57;94666.38;;;10.07;77.98
9538;BME280;4807;48.024;11.726;2022-09-17T11:32:32;94657.22;;;10.29;76.85
9538;BME280;4807;48.024;11.726;2022-09-17T11:35:47;94661.06;;;10.47;76.89
9538;BME280;4807;48.024;11.726;2022-09-17T11:39:04;94655.94;;;10.52;75.19
9538;BME280;4807;48.024;11.726;2022-09-17T11:42:23;94652.09;;;10.21;76.97
9538;BME280;4807;48.024;11.726;2022-09-17T11:45:39;94649.59;;;9.80;77.08
9538;BME280;4807;48.024;11.726;2022-09-17T11:49:00;94654.31;;;10.24;76.92
9538;BME280;4807;48.024;11.726;2022-09-17T11:52:15;94653.28;;;10.52;75.70
9538;BME280;4807;48.024;11.726;2022-09-17T11:55:34;94645.19;;;10.91;72.90
9538;BME280;4807;48.024;11.726;2022-09-17T11:58:50;94655.66;;;10.86;73.21
9538;BME280;4807;48.024;11.726;2022-09-17T12:02:12;94652.16;;;10.92;72.91
9538;BME280;4807;48.024;11.726;2022-09-17T12:05:30;94645.88;;;10.67;72.93
9538;BME280;4807;48.024;11.726;2022-09-17T12:08:51;94644.63;;;10.63;73.34
9538;BME280;4807;48.024;11.726;2022-09-17T12:12:08;94639.31;;;10.76;73.69
9538;BME280;4807;48.024;11.726;2022-09-17T12:15:44;94642.63;;;10.52;73.20
9538;BME280;4807;48.024;11.726;2022-09-17T12:19:05;94642.94;;;10.88;73.64
9538;BME280;4807;48.024;11.726;2022-09-17T12:22:22;94638.22;;;10.90;73.51
9538;BME280;4807;48.024;11.726;2022-09-17T12:25:37;94638.28;;;11.22;73.03
9538;BME280;4807;48.024;11.726;2022-09-17T12:29:01;94632.00;;;11.09;72.95
9538;BME280;4807;48.024;11.726;2022-09-17T12:32:33;94619.59;;;10.84;72.08
9538;BME280;4807;48.024;11.726;2022-09-17T12:36:08;94616.31;;;11.33;73.13
9538;BME280;4807;48.024;11.726;2022-09-17T12:40:08;94614.50;;;11.27;69.70
9538;BME280;4807;48.024;11.726;2022-09-17T12:43:48;94616.59;;;11.56;68.81
9538;BME280;4807;48.024;11.726;2022-09-17T12:47:31;94615.28;;;11.34;67.08
9538;BME280;4807;48.024;11.726;2022-09-17T12:51:03;94620.88;;;10.68;72.61
9538;BME280;4807;48.024;11.726;2022-09-17T12:54:32;94620.13;;;10.15;76.87
9538;BME280;4807;48.024;11.726;2022-09-17T12:58:03;94615.84;;;9.61;77.00
9538;BME280;4807;48.024;11.726;2022-09-17T13:01:24;94620.50;;;9.39;78.87
9538;BME280;4807;48.024;11.726;2022-09-17T13:05:15;94627.41;;;9.21;78.16
9538;BME280;4807;48.024;11.726;2022-09-17T13:09:02;94621.28;;;8.72;79.66
9538;BME280;4807;48.024;11.726;2022-09-17T13:12:25;94610.63;;;9.20;81.07
9538;BME280;4807;48.024;11.726;2022-09-17T13:15:50;94609.69;;;9.61;77.69
9538;BME280;4807;48.024;11.726;2022-09-17T13:19:12;94608.91;;;9.80;75.32
9538;BME280;4807;48.024;11.726;2022-09-17T13:22:29;94614.22;;;10.19;75.87
9538;BME280;4807;48.024;11.726;2022-09-17T13:25:49;94614.34;;;10.64;76.88
9538;BME280;4807;48.024;11.726;2022-09-17T13:29:01;94624.38;;;11.20;76.30
9538;BME280;4807;48.024;11.726;2022-09-17T13:32:44;94613.03;;;10.93;71.80
9538;BME280;4807;48.024;11.726;2022-09-17T13:35:53;94611.97;;;10.29;72.92
9538;BME280;4807;48.024;11.726;2022-09-17T13:39:03;94619.06;;;9.50;78.10
9538;BME280;4807;48.024;11.726;2022-09-17T13:42:20;94598.75;;;9.03;78.83
9538;BME280;4807;48.024;11.726;2022-09-17T13:46:17;94616.09;;;8.99;80.20
9538;BME280;4807;48.024;11.726;2022-09-17T13:49:29;94620.75;;;8.84;79.04
9538;BME280;4807;48.024;11.726;2022-09-17T13:52:43;94619.66;;;8.71;80.11
9538;BME280;4807;48.024;11.726;2022-09-17T13:55:54;94615.69;;;8.54;80.04
9538;BME280;4807;48.024;11.726;2022-09-17T13:59:06;94626.31;;;8.54;82.14
9538;BME280;4807;48.024;11.726;2022-09-17T14:02:35;94624.94;;;8.65;82.37
9538;BME280;4807;48.024;11.726;2022-09-17T14:05:43;94630.53;;;8.83;82.03
9538;BME280;4807;48.024;11.726;2022-09-17T14:08:51;94630.56;;;8.90;81.92
9538;BME280;4807;48.024;11.726;2022-09-17T14:12:50;94622.06;;;9.07;82.41
9538;BME280;4807;48.024;11.726;2022-09-17T14:16:00;94620.91;;;9.36;81.63
9538;BME280;4807;48.024;11.726;2022-09-17T14:19:41;94619.31;;;9.62;81.42
9538;BME280;4807;48.024;11.726;2022-09-17T14:23:00;94611.13;;;10.03;79.53
9538;BME280;4807;48.024;11.726;2022-09-17T14:26:18;94612.78;;;10.23;79.98
9538;BME280;4807;48.024;11.726;2022-09-17T14:29:52;94604.75;;;10.50;79.14
9538;BME280;4807;48.024;11.726;2022-09-17T14:33:10;94613.13;;;10.47;73.01
9538;BME280;4807;48.024;11.726;2022-09-17T14:36:24;94608.66;;;10.54;72.33
9538;BME280;4807;48.024;11.726;2022-09-17T14:39:37;94611.13;;;10.36;72.50
9538;BME280;4807;48.024;11.726;2022-09-17T14:42:51;94614.41;;;10.11;72.19
9538;BME280;4807;48.024;11.726;2022-09-17T14:46:05;94619.75;;;10.18;74.75
9538;BME280;4807;48.024;11.726;2022-09-17T14:49:21;94618.91;;;10.30;72.93
9538;BME280;4807;48.024;11.726;2022-09-17T14:52:31;94607.41;;;10.50;73.90
9538;BME280;4807;48.024;11.726;2022-09-17T14:55:41;94619.66;;;10.64;74.62
9538;BME280;4807;48.024;11.726;2022-09-17T14:58:52;94612.63;;;10.89;73.27
9538;BME280;4807;48.024;11.726;2022-09-17T15:02:01;94621.34;;;11.09;72.63
9538;BME280;4807;48.024;11.726;2022-09-17T15:05:21;94624.59;;;11.12;71.45
9538;BME280;4807;48.024;11.726;2022-09-17T15:08:32;94619.16;;;10.93;73.08
9538;BME280;4807;48.024;11.726;2022-09-17T15:11:42;94614.25;;;10.90;69.86
9538;BME280;4807;48.024;11.726;2022-09-17T15:14:53;94624.66;;;10.98;71.10
9538;BME280;4807;48.024;11.726;2022-09-17T15:18:03;94629.25;;;10.71;70.47
9538;BME280;4807;48.024;11.726;2022-09-17T15:21:27;94646.28;;;10.57;72.27
9538;BME280;4807;48.024;11.726;2022-09-17T15:24:42;94653.91;;;10.41;73.14
9538;BME280;4807;48.024;11.726;2022-09-17T15:27:56;94654.53;;;10.36;72.65
9538;BME280;4807;48.024;11.726;2022-09-17T15:31:17;94661.91;;;10.27;72.35
9538;BME280;4807;48.024;11.726;2022-09-17T15:34:28;94674.78;;;10.44;74.74
9538;BME280;4807;48.024;11.726;2022-09-17T15:37:42;94677.03;;;10.47;74.39
9538;BME280;4807;48.024;11.726;2022-09-17T15:41:27;94686.69;;;10.28;71.70
9538;BME280;4807;48.024;11.726;2022-09-17T15:44:36;94686.00;;;9.93;71.47
9538;BME280;4807;48.024;11.726;2022-09-17T15:47:54;94677.41;;;9.78;74.01
9538;BME280;4807;48.024;11.726;2022-09-17T15:51:05;94672.44;;;9.48;73.19
9538;BME280;4807;48.024;11.726;2022-09-17T15:54:28;94684.03;;;9.34;74.30
9538;BME280;4807;48.024;11.726;2022-09-17T15:57:38;94688.69;;;9.26;74.69
9538;BME280;4807;48.024;11.726;2022-09-17T16:05:46;94681.31;;;9.08;75.48
9538;BME280;4807;48.024;11.726;2022-09-17T16:09:00;94687.03;;;9.11;75.91
9538;BME280;4807;48.024;11.726;2022-09-17T16:12:12;94688.28;;;9.15;76.33
9538;BME280;4807;48.024;11.726;2022-09-17T16:15:22;94691.09;;;9.07;76.19
9538;BME280;4807;48.024;11.726;2022-09-17T16:18:31;94691.50;;;9.04;75.55
9538;BME280;4807;48.024;11.726;2022-09-17T16:21:40;94689.47;;;9.06;75.68
9538;BME280;4807;48.024;11.726;2022-09-17T16:24:48;94685.97;;;8.99;73.69
9538;BME280;4807;48.024;11.726;2022-09-17T16:28:00;94693.88;;;8.93;75.03
9538;BME280;4807;48.024;11.726;2022-09-17T16:31:13;94691.00;;;8.88;74.55
9538;BME280;4807;48.024;11.726;2022-09-17T16:34:21;94698.34;;;8.86;75.73
9538;BME280;4807;48.024;11.726;2022-09-17T16:37:29;94708.56;;;8.89;75.50
9538;BME280;4807;48.024;11.726;2022-09-17T16:40:41;94706.22;;;8.72;75.81
9538;BME280;4807;48.024;11.726;2022-09-17T16:43:49;94710.38;;;8.82;76.00
9538;BME280;4807;48.024;11.726;2022-09-17T16:46:59;94704.22;;;8.74;76.13
9538;BME280;4807;48.024;11.726;2022-09-17T16:50:10;94720.34;;;8.79;75.13
9538;BME280;4807;48.024;11.726;2022-09-17T16:53:18;94708.91;;;8.79;75.24
9538;BME280;4807;48.024;11.726;2022-09-17T16:56:27;94717.72;;;8.79;76.30
9538;BME280;4807;48.024;11.726;2022-09-17T16:59:35;94727.53;;;8.86;76.66
9538;BME280;4807;48.024;11.726;2022-09-17T17:02:51;94732.09;;;8.92;76.16
9538;BME280;4807;48.024;11.726;2022-09-17T17:06:00;94724.31;;;8.90;76.41
9538;BME280;4807;48.024;11.726;2022-09-17T17:09:09;94731.19;;;8.85;76.52
9538;BME280;4807;48.024;11.726;2022-09-17T17:12:18;94727.25;;;8.67;77.14
9538;BME280;4807;48.024;11.726;2022-09-17T17:15:27;94733.31;;;8.61;77.25
9538;BME280;4807;48.024;11.726;2022-09-17T17:18:37;94738.16;;;8.51;77.42
9538;BME280;4807;48.024;11.726;2022-09-17T17:21:49;94747.59;;;8.32;78.68
9538;BME280;4807;48.024;11.726;2022-09-17T17:24:57;94744.03;;;8.25;78.70
9538;BME280;4807;48.024;11.726;2022-09-17T17:28:05;94742.84;;;8.07;80.07
9538;BME280;4807;48.024;11.726;2022-09-17T17:31:13;94747.59;;;7.90;80.96
9538;BME280;4807;48.024;11.726;2022-09-17T17:34:23;94763.19;;;7.78;80.64
9538;BME280;4807;48.024;11.726;2022-09-17T17:37:36;94760.25;;;7.73;81.11
9538;BME280;4807;48.024;11.726;2022-09-17T17:40:44;94765.91;;;7.49;81.96
9538;BME280;4807;48.024;11.726;2022-09-17T17:43:53;94768.44;;;7.57;81.19